Acme, Michigan
Current Conditions -  °F | °C
As of 8:53 AM on Friday 28 Nov 2014 (Local Time) from KTVC Reporting Station
Overcast Overcast  
Wind Chill: 11°   Ceiling: 9000
Heat Index: 18°   Visibility: 10mi
Dew Point: 13°   Wind: 5mph
Humidity: 81%   Direction: 180°S
Pressure: 30.23"   Gusts: NA
Location:  44.77°N, 85.5°W
Report Text: KTVC 281353Z 18004KT 10SM FEW034 BKN090 OVC120 M08/M11 A3023 RMK AO2 SLP250 T10781106
Loading
Personal Weather Stations






























Interactive Weather Map New forecast layout! Learn more

10-Day Weather Forecast

Advertisements
Track Severe Weather on mobile